Time;durP1;ratioP1;P1;durP2;ratioP2;P2;SDS_P1;SDS_P2;PMS_P1;PMS_P2;Temp;Humidity;BMP_temperature;BMP_pressure;BME280_temperature;BME280_humidity;BME280_pressure;Samples;Min_cycle;Max_cycle;Signal;HPM_P1;HPM_P2
2022/12/04 00:01:10;;;;;;;;;;;;;;;;;;5048573;28;19932;-80
2022/12/04 00:03:42;;;;;;;;;;;;;;;;;;5051677;28;19925;-78
2022/12/04 00:06:10;;;;;;;;;;;;;;;;;;5051315;28;19924;-79
2022/12/04 00:08:42;;;;;;;;;;;;;;;;;;5040249;28;19932;-78
2022/12/04 00:11:10;;;;;;;;;;;;;;;;;;5061668;28;20270;-78
2022/12/04 00:13:42;;;;;;;;;;;;;;;;;;5033943;28;19932;-79
2022/12/04 00:16:10;;;;;;;;;;;;;;;;;;5044676;28;19925;-78
2022/12/04 00:18:37;;;;;;;;;;;;;;;;;;5031958;28;19929;-79
2022/12/04 00:21:10;;;;;;;;;;;;;;;;;;5046000;28;20309;-79
2022/12/04 00:23:42;;;;;;;;;;;;;;;;;;5049804;28;19925;-78
2022/12/04 00:26:15;;;;;;;;;;;;;;;;;;5033115;28;19932;-78
2022/12/04 00:28:47;;;;;;;;;;;;;;;;;;5040924;28;19929;-79
2022/12/04 00:31:20;;;;;;;;;;;;;;;;;;5036821;28;19925;-78
2022/12/04 00:33:52;;;;;;;;;;;;;;;;;;5041770;28;19932;-79
2022/12/04 00:36:25;;;;;;;;;;;;;;;;;;5042683;28;19925;-80
2022/12/04 00:38:57;;;;;;;;;;;;;;;;;;5068240;28;19929;-79
2022/12/04 00:41:30;;;;;;;;;;;;;;;;;;5046247;28;19932;-81
2022/12/04 00:44:02;;;;;;;;;;;;;;;;;;5049248;28;19932;-78
2022/12/04 00:46:35;;;;;;;;;;;;;;;;;;5040286;28;19925;-78
2022/12/04 00:49:02;;;;;;;;;;;;;;;;;;5047545;28;20377;-78
2022/12/04 00:51:30;;;;;;;;;;;;;;;;;;5040354;28;19925;-80
2022/12/04 00:54:02;;;;;;;;;;;;;;;;;;5044453;28;19925;-79
2022/12/04 00:56:35;;;;;;;;;;;;;;;;;;5068123;28;19925;-79
2022/12/04 00:59:02;;;;;;;;;;;;;;;;;;5063574;28;19925;-79
2022/12/04 01:01:35;;;;;;;;;;;;;;;;;;5060074;28;20270;-78
2022/12/04 01:04:07;;;;;;;;;;;;;;;;;;5042136;28;19929;-79
2022/12/04 01:06:35;;;;;;;;;;;;;;;;;;5035403;28;19925;-79
2022/12/04 01:09:07;;;;;;;;;;;;;;;;;;5047206;28;19933;-79
2022/12/04 01:11:40;;;;;;;;;;;;;;;;;;5051109;28;20565;-79
2022/12/04 01:14:08;;;;;;;;;;;;;;;;;;5042860;28;19925;-79
2022/12/04 01:16:40;;;;;;;;;;;;;;;;;;5038573;28;19939;-78
2022/12/04 01:19:07;;;;;;;;;;;;;;;;;;5039251;28;19944;-79
2022/12/04 01:21:35;;;;;;;;;;;;;;;;;;5048834;28;19925;-78
2022/12/04 01:24:02;;;;;;;;;;;;;;;;;;5057416;28;19925;-79
2022/12/04 01:26:35;;;;;;;;;;;;;;;;;;5042589;28;19924;-79
2022/12/04 01:29:02;;;;;;;;;;;;;;;;;;5051559;28;19983;-79
2022/12/04 01:31:30;;;;;;;;;;;;;;;;;;5045427;28;19932;-79
2022/12/04 01:33:57;;;;;;;;;;;;;;;;;;5038238;28;19928;-79
2022/12/04 01:36:30;;;;;;;;;;;;;;;;;;5053823;28;19929;-79
2022/12/04 01:38:57;;;;;;;;;;;;;;;;;;5039109;28;20405;-78
2022/12/04 01:41:30;;;;;;;;;;;;;;;;;;5040100;28;19925;-78
2022/12/04 01:43:58;;;;;;;;;;;;;;;;;;5035409;28;20483;-79
2022/12/04 01:46:30;;;;;;;;;;;;;;;;;;5051177;28;19936;-78
2022/12/04 01:48:58;;;;;;;;;;;;;;;;;;5050931;28;20290;-79
2022/12/04 01:51:30;;;;;;;;;;;;;;;;;;5039163;28;19925;-79
2022/12/04 01:54:03;;;;;;;;;;;;;;;;;;5056690;28;19929;-78
2022/12/04 01:56:30;;;;;;;;;;;;;;;;;;5038811;28;19925;-79
2022/12/04 01:59:03;;;;;;;;;;;;;;;;;;5038252;28;20286;-80
2022/12/04 02:01:35;;;;;;;;;;;;;;;;;;5038584;28;19932;-79
2022/12/04 02:04:03;;;;;;;;;;;;;;;;;;5034448;28;19925;-79
2022/12/04 02:06:30;;;;;;;;;;;;;;;;;;5039585;28;20297;-79
2022/12/04 02:08:58;;;;;;;;;;;;;;;;;;5036557;28;19929;-81
2022/12/04 02:11:31;;;;;;;;;;;;;;;;;;5068338;28;20399;-79
2022/12/04 02:13:58;;;;;;;;;;;;;;;;;;5049233;28;19943;-80
2022/12/04 02:16:30;;;;;;;;;;;;;;;;;;5053571;28;19928;-80
2022/12/04 02:19:03;;;;;;;;;;;;;;;;;;5037966;28;20324;-80
2022/12/04 02:21:31;;;;;;;;;;;;;;;;;;5046935;28;19941;-80
2022/12/04 02:23:58;;;;;;;;;;;;;;;;;;5059641;28;19944;-79
2022/12/04 02:26:25;;;;;;;;;;;;;;;;;;5043283;28;19925;-79
2022/12/04 02:28:58;;;;;;;;;;;;;;;;;;5033639;28;19929;-79
2022/12/04 02:31:30;;;;;;;;;;;;;;;;;;5037026;28;19925;-79
2022/12/04 02:34:03;;;;;;;;;;;;;;;;;;5050596;28;19925;-78
2022/12/04 02:36:35;;;;;;;;;;;;;;;;;;5053243;28;19925;-80
2022/12/04 02:39:08;;;;;;;;;;;;;;;;;;5052142;28;19933;-80
2022/12/04 02:41:35;;;;;;;;;;;;;;;;;;5041696;28;19925;-78
2022/12/04 02:44:08;;;;;;;;;;;;;;;;;;5048478;28;19936;-80
2022/12/04 02:46:41;;;;;;;;;;;;;;;;;;5044306;28;19924;-81
2022/12/04 02:49:08;;;;;;;;;;;;;;;;;;5043499;28;19936;-83
2022/12/04 02:51:35;;;;;;;;;;;;;;;;;;5045047;28;19925;-79
2022/12/04 02:54:03;;;;;;;;;;;;;;;;;;5048784;28;19925;-79
2022/12/04 02:56:36;;;;;;;;;;;;;;;;;;5044513;28;19932;-78
2022/12/04 02:59:03;;;;;;;;;;;;;;;;;;5042632;28;19932;-78
2022/12/04 03:01:35;;;;;;;;;;;;;;;;;;5034659;28;19925;-79
2022/12/04 03:04:03;;;;;;;;;;;;;;;;;;5044377;28;19952;-80
2022/12/04 03:06:35;;;;;;;;;;;;;;;;;;5047915;28;19925;-79
2022/12/04 03:09:08;;;;;;;;;;;;;;;;;;5037015;28;19936;-79
2022/12/04 03:11:35;;;;;;;;;;;;;;;;;;5042116;28;19932;-80
2022/12/04 03:14:03;;;;;;;;;;;;;;;;;;5042968;28;19929;-79
2022/12/04 03:16:31;;;;;;;;;;;;;;;;;;5047125;28;19932;-78
2022/12/04 03:18:58;;;;;;;;;;;;;;;;;;5051454;28;19936;-80
2022/12/04 03:21:31;;;;;;;;;;;;;;;;;;5042701;28;19925;-78
2022/12/04 03:24:03;;;;;;;;;;;;;;;;;;5047807;28;19932;-79
2022/12/04 03:26:31;;;;;;;;;;;;;;;;;;5052110;28;19924;-79
2022/12/04 03:28:58;;;;;;;;;;;;;;;;;;5047111;28;19940;-81
2022/12/04 03:31:26;;;;;;;;;;;;;;;;;;5045550;28;20266;-79
2022/12/04 03:33:58;;;;;;;;;;;;;;;;;;5041877;28;19951;-80
2022/12/04 03:36:26;;;;;;;;;;;;;;;;;;5053485;28;19925;-79
2022/12/04 03:38:59;;;;;;;;;;;;;;;;;;5055779;28;19929;-81
2022/12/04 03:41:27;;;;;;;;;;;;;;;;;;5039356;28;19925;-80
2022/12/04 03:43:54;;;;;;;;;;;;;;;;;;5041687;28;19932;-79
2022/12/04 03:46:22;;;;;;;;;;;;;;;;;;5052052;28;20373;-80
2022/12/04 03:48:49;;;;;;;;;;;;;;;;;;5058093;28;20275;-79
2022/12/04 03:51:17;;;;;;;;;;;;;;;;;;5040066;28;19929;-79
2022/12/04 03:53:49;;;;;;;;;;;;;;;;;;5047949;28;20301;-79
2022/12/04 03:56:22;;;;;;;;;;;;;;;;;;5045899;28;19925;-79
2022/12/04 03:58:49;;;;;;;;;;;;;;;;;;5045969;28;20310;-79
2022/12/04 04:01:17;;;;;;;;;;;;;;;;;;5045412;28;19932;-80
2022/12/04 04:03:44;;;;;;;;;;;;;;;;;;5044106;28;19925;-78
2022/12/04 04:06:16;;;;;;;;;;;;;;;;;;5043531;28;19925;-79
2022/12/04 04:08:44;;;;;;;;;;;;;;;;;;5045323;28;19925;-79
2022/12/04 04:11:12;;;;;;;;;;;;;;;;;;5036313;28;19925;-80
2022/12/04 04:24:55;;;;;;;;;;;;;;;;;;5036929;28;19925;-79
2022/12/04 04:27:22;;;;;;;;;;;;;;;;;;5043247;28;19925;-79
2022/12/04 04:29:50;;;;;;;;;;;;;;;;;;5041817;28;19952;-80
2022/12/04 04:32:17;;;;;;;;;;;;;;;;;;5048712;28;19932;-78
2022/12/04 04:34:45;;;;;;;;;;;;;;;;;;5043841;28;20039;-80
2022/12/04 04:37:18;;;;;;;;;;;;;;;;;;5040934;28;19951;-79
2022/12/04 04:39:45;;;;;;;;;;;;;;;;;;5040366;28;19936;-79
2022/12/04 04:42:18;;;;;;;;;;;;;;;;;;5047264;28;19932;-79
2022/12/04 04:44:50;;;;;;;;;;;;;;;;;;5044683;28;20304;-79
2022/12/04 04:47:18;;;;;;;;;;;;;;;;;;5045200;28;19933;-79
2022/12/04 04:49:50;;;;;;;;;;;;;;;;;;5042946;28;19952;-79
2022/12/04 04:52:23;;;;;;;;;;;;;;;;;;5041926;28;20309;-79
2022/12/04 04:54:55;;;;;;;;;;;;;;;;;;5050629;28;19925;-81
2022/12/04 04:57:28;;;;;;;;;;;;;;;;;;5038060;28;19932;-79
2022/12/04 05:00:00;;;;;;;;;;;;;;;;;;5042702;28;19936;-79
2022/12/04 05:02:28;;;;;;;;;;;;;;;;;;5044203;28;19925;-81
2022/12/04 05:04:55;;;;;;;;;;;;;;;;;;5051362;28;19925;-79
2022/12/04 05:07:23;;;;;;;;;;;;;;;;;;5035600;28;19925;-78
2022/12/04 05:09:50;;;;;;;;;;;;;;;;;;5041189;28;19929;-79
2022/12/04 05:12:18;;;;;;;;;;;;;;;;;;5044925;28;19926;-79
2022/12/04 05:14:50;;;;;;;;;;;;;;;;;;5047730;28;20300;-81
2022/12/04 05:17:23;;;;;;;;;;;;;;;;;;5046525;28;19925;-80
2022/12/04 05:19:53;;;;;;;;;;;;;;;;;;5050123;28;19929;-79
2022/12/04 05:22:21;;;;;;;;;;;;;;;;;;5057754;28;19925;-81
2022/12/04 05:24:54;;;;;;;;;;;;;;;;;;5052142;28;20325;-80
2022/12/04 05:27:21;;;;;;;;;;;;;;;;;;5048813;28;19924;-79
2022/12/04 05:29:49;;;;;;;;;;;;;;;;;;5065332;28;19928;-81
2022/12/04 05:32:21;;;;;;;;;;;;;;;;;;5057247;28;19925;-80
2022/12/04 05:34:49;;;;;;;;;;;;;;;;;;5038389;28;19932;-79
2022/12/04 05:37:21;;;;;;;;;;;;;;;;;;5043759;28;20598;-79
2022/12/04 05:39:49;;;;;;;;;;;;;;;;;;5045896;28;19931;-78
2022/12/04 05:42:16;;;;;;;;;;;;;;;;;;5042090;28;20396;-80
2022/12/04 05:44:44;;;;;;;;;;;;;;;;;;5045519;28;19932;-80
2022/12/04 05:47:11;;;;;;;;;;;;;;;;;;5044995;28;20301;-79
2022/12/04 05:49:40;;;;;;;;;;;;;;;;;;5046760;28;19932;-79
2022/12/04 05:52:07;;;;;;;;;;;;;;;;;;5051282;28;19932;-80
2022/12/04 05:54:35;;;;;;;;;;;;;;;;;;5039553;28;19945;-81
2022/12/04 05:57:02;;;;;;;;;;;;;;;;;;5045222;28;19925;-79
2022/12/04 05:59:30;;;;;;;;;;;;;;;;;;5040812;28;19928;-80
2022/12/04 06:01:57;;;;;;;;;;;;;;;;;;5038953;28;19924;-81
2022/12/04 06:04:30;;;;;;;;;;;;;;;;;;5047771;28;19925;-79
2022/12/04 06:06:57;;;;;;;;;;;;;;;;;;5046765;28;19925;-79
2022/12/04 06:09:30;;;;;;;;;;;;;;;;;;5049105;28;19925;-80
2022/12/04 06:11:57;;;;;;;;;;;;;;;;;;5049523;28;19925;-81
2022/12/04 06:14:29;;;;;;;;;;;;;;;;;;5045864;28;20551;-79
2022/12/04 06:17:02;;;;;;;;;;;;;;;;;;5047922;28;20333;-79
2022/12/04 06:19:29;;;;;;;;;;;;;;;;;;5051052;28;19932;-79
2022/12/04 06:21:57;;;;;;;;;;;;;;;;;;5037865;28;19932;-79
2022/12/04 06:24:24;;;;;;;;;;;;;;;;;;5046635;28;19925;-79
2022/12/04 06:26:52;;;;;;;;;;;;;;;;;;5048518;28;19924;-80
2022/12/04 06:29:19;;;;;;;;;;;;;;;;;;5047057;28;20370;-81
2022/12/04 06:31:47;;;;;;;;;;;;;;;;;;5050073;28;19948;-80
2022/12/04 06:34:19;;;;;;;;;;;;;;;;;;5045479;28;19928;-82
2022/12/04 06:36:47;;;;;;;;;;;;;;;;;;5047386;28;19932;-79
2022/12/04 06:39:19;;;;;;;;;;;;;;;;;;5038212;28;19925;-79
2022/12/04 06:41:47;;;;;;;;;;;;;;;;;;5048725;28;19925;-80
2022/12/04 06:44:19;;;;;;;;;;;;;;;;;;5043981;28;19929;-79
2022/12/04 06:46:47;;;;;;;;;;;;;;;;;;5047821;28;19925;-79
2022/12/04 06:49:21;;;;;;;;;;;;;;;;;;5047694;28;19929;-78
2022/12/04 06:51:49;;;;;;;;;;;;;;;;;;5046066;28;19926;-79
2022/12/04 06:54:16;;;;;;;;;;;;;;;;;;5062197;28;20286;-79
2022/12/04 06:56:49;;;;;;;;;;;;;;;;;;5047271;28;20389;-79
2022/12/04 06:59:16;;;;;;;;;;;;;;;;;;5041721;28;20035;-79
2022/12/04 07:01:44;;;;;;;;;;;;;;;;;;5046278;28;19951;-79
2022/12/04 07:04:11;;;;;;;;;;;;;;;;;;5050629;28;19929;-80
2022/12/04 07:06:44;;;;;;;;;;;;;;;;;;5049232;28;19925;-79
2022/12/04 07:09:16;;;;;;;;;;;;;;;;;;5045695;28;19925;-79
2022/12/04 07:11:49;;;;;;;;;;;;;;;;;;5035593;28;20309;-79
2022/12/04 07:14:21;;;;;;;;;;;;;;;;;;5052820;28;19935;-80
2022/12/04 07:16:49;;;;;;;;;;;;;;;;;;5033255;28;19925;-79
2022/12/04 07:19:16;;;;;;;;;;;;;;;;;;5049879;28;19936;-79
2022/12/04 07:21:44;;;;;;;;;;;;;;;;;;5045577;28;20420;-79
2022/12/04 07:24:16;;;;;;;;;;;;;;;;;;5040579;28;19925;-80
2022/12/04 07:26:44;;;;;;;;;;;;;;;;;;5035331;28;19925;-79
2022/12/04 07:29:11;;;;;;;;;;;;;;;;;;5045943;28;19928;-79
2022/12/04 07:31:39;;;;;;;;;;;;;;;;;;5041512;28;19931;-78
2022/12/04 07:34:06;;;;;;;;;;;;;;;;;;5058646;28;19939;-79
2022/12/04 07:36:34;;;;;;;;;;;;;;;;;;5046689;28;19948;-79
2022/12/04 07:39:01;;;;;;;;;;;;;;;;;;5046971;28;19929;-79
2022/12/04 07:41:34;;;;;;;;;;;;;;;;;;5040692;28;19932;-79
2022/12/04 07:44:06;;;;;;;;;;;;;;;;;;5052266;28;20393;-79
2022/12/04 07:46:38;;;;;;;;;;;;;;;;;;5044911;28;19951;-79
2022/12/04 07:49:11;;;;;;;;;;;;;;;;;;5037360;28;19932;-82
2022/12/04 07:51:44;;;;;;;;;;;;;;;;;;5059376;28;20392;-83
2022/12/04 07:54:16;;;;;;;;;;;;;;;;;;5061787;28;19932;-85
2022/12/04 07:56:49;;;;;;;;;;;;;;;;;;5043572;28;19925;-79
2022/12/04 07:59:21;;;;;;;;;;;;;;;;;;5047477;28;19932;-79
2022/12/04 08:01:54;;;;;;;;;;;;;;;;;;5041741;28;20522;-78
2022/12/04 08:04:26;;;;;;;;;;;;;;;;;;5040328;28;19925;-84
2022/12/04 08:06:54;;;;;;;;;;;;;;;;;;5050336;28;20382;-79
2022/12/04 08:09:26;;;;;;;;;;;;;;;;;;5038071;28;20505;-79
2022/12/04 08:11:59;;;;;;;;;;;;;;;;;;5034065;28;19925;-79
2022/12/04 08:14:31;;;;;;;;;;;;;;;;;;5051224;28;20142;-78
2022/12/04 08:17:04;;;;;;;;;;;;;;;;;;5038305;28;19929;-79
2022/12/04 08:19:31;;;;;;;;;;;;;;;;;;5046921;28;19925;-80
2022/12/04 08:22:04;;;;;;;;;;;;;;;;;;5044622;28;19932;-79
2022/12/04 08:24:31;;;;;;;;;;;;;;;;;;5032698;28;20297;-79
2022/12/04 08:26:59;;;;;;;;;;;;;;;;;;5044404;28;19932;-79
2022/12/04 08:29:26;;;;;;;;;;;;;;;;;;5046891;28;19925;-79
2022/12/04 08:31:59;;;;;;;;;;;;;;;;;;5039222;28;19925;-79
2022/12/04 08:34:26;;;;;;;;;;;;;;;;;;5048167;28;19933;-80
2022/12/04 08:36:54;;;;;;;;;;;;;;;;;;5057934;28;19932;-79
2022/12/04 08:39:21;;;;;;;;;;;;;;;;;;5048395;28;19926;-80
2022/12/04 08:41:49;;;;;;;;;;;;;;;;;;5065989;28;19925;-81
2022/12/04 08:44:21;;;;;;;;;;;;;;;;;;5046131;28;20320;-79
2022/12/04 08:46:54;;;;;;;;;;;;;;;;;;5056118;28;20324;-79
2022/12/04 08:49:26;;;;;;;;;;;;;;;;;;5038739;28;19925;-79
2022/12/04 08:51:54;;;;;;;;;;;;;;;;;;5045499;28;19933;-80
2022/12/04 08:54:26;;;;;;;;;;;;;;;;;;5048087;28;19925;-80
2022/12/04 08:56:54;;;;;;;;;;;;;;;;;;5037690;28;20385;-79
2022/12/04 08:59:26;;;;;;;;;;;;;;;;;;5041743;28;20285;-81
2022/12/04 09:01:54;;;;;;;;;;;;;;;;;;5042791;28;19925;-80
2022/12/04 09:04:26;;;;;;;;;;;;;;;;;;5043515;28;19932;-81
2022/12/04 09:06:54;;;;;;;;;;;;;;;;;;5038899;28;19929;-82
2022/12/04 09:09:21;;;;;;;;;;;;;;;;;;5054439;28;19925;-79
2022/12/04 09:11:54;;;;;;;;;;;;;;;;;;5041101;28;19931;-79
2022/12/04 09:14:24;;;;;;;;;;;;;;;;;;5040781;28;19925;-79
2022/12/04 09:16:52;;;;;;;;;;;;;;;;;;5037469;28;19932;-80
2022/12/04 09:19:19;;;;;;;;;;;;;;;;;;5046698;28;20305;-79
2022/12/04 09:21:47;;;;;;;;;;;;;;;;;;5060720;28;19925;-80
2022/12/04 09:24:15;;;;;;;;;;;;;;;;;;5045389;28;19932;-80
2022/12/04 09:26:47;;;;;;;;;;;;;;;;;;5037838;28;19932;-81
2022/12/04 09:29:15;;;;;;;;;;;;;;;;;;5041386;28;19925;-80
2022/12/04 09:31:47;;;;;;;;;;;;;;;;;;5057901;28;19929;-81
2022/12/04 09:34:15;;;;;;;;;;;;;;;;;;5034347;28;19932;-82
2022/12/04 09:36:42;;;;;;;;;;;;;;;;;;5040582;28;19932;-81
2022/12/04 09:39:14;;;;;;;;;;;;;;;;;;5041991;28;19925;-81
2022/12/04 09:41:56;;;;;;;13.75;7.57;;;;;;;;;;5043081;28;19935;-81
2022/12/04 09:44:32;;;;;;;19.90;8.60;;;;;;;;;;5050036;28;20041;-81
2022/12/04 09:47:09;;;;;;;21.23;9.80;;;;;;;;;;5049028;28;20052;-82
2022/12/04 09:49:43;;;;;;;22.13;9.25;;;;;;;;;;5055195;28;20052;-81
2022/12/04 09:52:22;;;;;;;20.67;9.35;;;;;;;;;;5044510;28;20057;-82
2022/12/04 09:54:55;;;;;;;20.45;9.38;;;;;;;;;;5044543;28;20050;-82
2022/12/04 09:57:34;;;;;;;19.30;9.00;;;;;;;;;;5043455;28;20053;-81
2022/12/04 10:00:11;;;;;;;23.20;9.38;;;;;;;;;;5046489;28;21080;-82
2022/12/04 10:02:46;;;;;;;27.27;10.60;;;;;;;;;;5039609;28;20053;-80
2022/12/04 10:05:16;;;;;;;19.15;9.02;;;;;;;;;;5047510;28;20049;-81
2022/12/04 10:07:54;;;;;;;20.27;10.18;;;;;;;;;;5049235;28;20064;-82
2022/12/04 10:10:34;;;;;;;19.27;9.45;;;;;;;;;;5040781;28;20046;-81
2022/12/04 10:13:21;;;;;;;25.45;10.88;;;;;;;;;;5044429;28;20061;-81
2022/12/04 10:15:59;;;;;;;23.43;10.83;;;;;;;;;;5048493;28;20041;-80
2022/12/04 10:18:38;;;;;;;24.45;11.10;;;;;;;;;;5048871;28;20052;-82
2022/12/04 10:21:19;;;;;;;27.05;10.93;;;;;;;;;;5059669;28;20053;-81
2022/12/04 10:23:57;;;;;;;21.00;9.95;;;;;;;;;;5063716;28;20071;-81
2022/12/04 10:26:32;;;;;;;28.58;11.63;;;;;;;;;;5045598;28;20045;-81
2022/12/04 10:29:03;;;;;;;23.30;10.68;;;;;;;;;;5042096;28;20055;-81
2022/12/04 10:31:40;;;;;;;24.23;9.85;;;;;;;;;;5056109;28;20049;-81
2022/12/04 10:34:12;;;;;;;;;;;;;;;;;;5038248;28;20053;-82
2022/12/04 10:36:45;;;;;;;;;;;;;;;;;;5047052;28;19928;-81
2022/12/04 10:39:13;;;;;;;;;;;;;;;;;;5047393;28;20271;-81
2022/12/04 10:41:40;;;;;;;;;;;;;;;;;;5057880;28;19921;-80
2022/12/04 10:44:13;;;;;;;;;;;;;;;;;;5046989;28;20708;-81
2022/12/04 10:46:45;;;;;;;;;;;;;;;;;;5050735;28;20030;-81
2022/12/04 10:49:12;;;;;;;;;;;;;;;;;;5051842;28;19920;-82
2022/12/04 10:51:40;;;;;;;;;;;;;;;;;;5068969;28;20487;-82
2022/12/04 10:54:07;;;;;;;;;;;;;;;;;;5055272;28;19920;-81
2022/12/04 10:56:40;;;;;;;;;;;;;;;;;;5049016;28;19921;-83
2022/12/04 10:59:08;;;;;;;;;;;;;;;;;;5044033;28;19921;-82
2022/12/04 11:01:35;;;;;;;;;;;;;;;;;;5054596;28;19921;-82
2022/12/04 11:04:03;;;;;;;;;;;;;;;;;;5040418;28;19920;-83
2022/12/04 11:06:30;;;;;;;;;;;;;;;;;;5050236;28;19928;-81
2022/12/04 11:08:58;;;;;;;;;;;;;;;;;;5055020;28;19921;-82
2022/12/04 11:11:30;;;;;;;;;;;;;;;;;;5042161;28;19928;-81
2022/12/04 11:13:58;;;;;;;;;;;;;;;;;;5046726;28;20373;-82
2022/12/04 11:16:25;;;;;;;;;;;;;;;;;;5039714;28;20388;-83
2022/12/04 11:18:53;;;;;;;;;;;;;;;;;;5053461;28;19943;-82
2022/12/04 11:21:26;;;;;;;;;;;;;;;;;;5043866;28;20370;-81
2022/12/04 11:23:58;;;;;;;;;;;;;;;;;;5044349;28;19944;-82
2022/12/04 11:26:26;;;;;;;;;;;;;;;;;;5034093;28;19921;-81
2022/12/04 11:29:00;;;;;;;;;;;;;;;;;;5054385;28;20373;-82
2022/12/04 11:31:27;;;;;;;;;;;;;;;;;;5051680;28;19921;-81
2022/12/04 11:33:55;;;;;;;;;;;;;;;;;;5032929;28;19921;-81
2022/12/04 11:36:22;;;;;;;;;;;;;;;;;;5038619;28;20381;-83
2022/12/04 11:38:55;;;;;;;;;;;;;;;;;;5044136;28;19932;-81
2022/12/04 11:41:27;;;;;;;;;;;;;;;;;;5053948;28;20274;-81
2022/12/04 11:43:55;;;;;;;;;;;;;;;;;;5047650;28;20349;-81
2022/12/04 11:46:27;;;;;;;;;;;;;;;;;;5069906;28;19928;-82
2022/12/04 11:49:02;;;;;;;;;;;;;;;;;;5044568;28;20266;-81
2022/12/04 11:51:29;;;;;;;;;;;;;;;;;;5045146;28;19921;-81
2022/12/04 11:54:02;;;;;;;;;;;;;;;;;;5052825;28;19921;-81
2022/12/04 11:56:34;;;;;;;;;;;;;;;;;;5038331;28;19932;-81
2022/12/04 11:59:02;;;;;;;;;;;;;;;;;;5053350;28;20671;-82
2022/12/04 12:01:34;;;;;;;;;;;;;;;;;;5049891;28;20355;-82
2022/12/04 12:04:02;;;;;;;;;;;;;;;;;;5041898;28;19928;-82
2022/12/04 12:06:29;;;;;;;;;;;;;;;;;;5057481;28;19920;-81
2022/12/04 12:09:02;;;;;;;;;;;;;;;;;;5059739;28;19921;-81
2022/12/04 12:11:29;;;;;;;;;;;;;;;;;;5053173;28;19920;-81
2022/12/04 12:14:02;;;;;;;;;;;;;;;;;;5044819;28;19927;-82
2022/12/04 12:16:29;;;;;;;;;;;;;;;;;;5043179;28;19928;-81
2022/12/04 12:19:03;;;;;;;;;;;;;;;;;;5052251;28;19921;-81
2022/12/04 12:21:30;;;;;;;;;;;;;;;;;;5043968;28;19920;-82
2022/12/04 12:24:03;;;;;;;;;;;;;;;;;;5046961;28;19925;-83
2022/12/04 12:26:35;;;;;;;;;;;;;;;;;;5057093;28;20385;-82
2022/12/04 12:29:07;;;;;;;;;;;;;;;;;;5040146;28;20301;-81
2022/12/04 12:31:35;;;;;;;;;;;;;;;;;;5048306;28;20594;-82
2022/12/04 12:34:07;;;;;;;;;;;;;;;;;;5057926;28;19921;-83
2022/12/04 12:36:35;;;;;;;;;;;;;;;;;;5034764;28;20736;-83
2022/12/04 12:39:02;;;;;;;;;;;;;;;;;;5037351;28;19928;-82
2022/12/04 12:41:30;;;;;;;;;;;;;;;;;;5031950;28;19929;-81
2022/12/04 12:44:03;;;;;;;;;;;;;;;;;;5030974;28;19929;-83
2022/12/04 12:46:30;;;;;;;;;;;;;;;;;;5029373;28;19929;-85
2022/12/04 12:48:58;;;;;;;;;;;;;;;;;;5028196;28;19928;-86
2022/12/04 12:51:30;;;;;;;;;;;;;;;;;;5034086;28;20467;-86
2022/12/04 12:54:03;;;;;;;;;;;;;;;;;;5030525;28;20309;-82
2022/12/04 12:56:37;;;;;;;;;;;;;;;;;;5028418;28;20420;-84
2022/12/04 12:59:09;;;;;;;;;;;;;;;;;;5029078;28;19921;-82
2022/12/04 13:01:37;;;;;;;;;;;;;;;;;;5031696;28;20400;-82
2022/12/04 13:04:04;;;;;;;;;;;;;;;;;;5035317;28;19927;-84
2022/12/04 13:06:32;;;;;;;;;;;;;;;;;;5029788;28;19935;-82
2022/12/04 13:09:04;;;;;;;;;;;;;;;;;;5027346;28;19936;-84
2022/12/04 13:11:32;;;;;;;;;;;;;;;;;;5026833;28;19928;-82
2022/12/04 13:14:04;;;;;;;;;;;;;;;;;;5025763;28;19929;-81
2022/12/04 13:16:32;;;;;;;;;;;;;;;;;;5028207;28;19960;-83
2022/12/04 13:19:05;;;;;;;;;;;;;;;;;;5029150;28;19940;-82
2022/12/04 13:21:32;;;;;;;;;;;;;;;;;;5029347;28;19929;-82
2022/12/04 13:24:05;;;;;;;;;;;;;;;;;;5030247;28;19929;-82
2022/12/04 13:26:32;;;;;;;;;;;;;;;;;;5029914;28;19928;-81
2022/12/04 13:29:00;;;;;;;;;;;;;;;;;;5031751;28;19929;-82
2022/12/04 13:31:32;;;;;;;;;;;;;;;;;;5030430;28;19929;-82
2022/12/04 13:34:00;;;;;;;;;;;;;;;;;;5030827;28;19928;-82
2022/12/04 13:36:27;;;;;;;;;;;;;;;;;;5032267;28;19927;-83
2022/12/04 13:39:00;;;;;;;;;;;;;;;;;;5023429;28;19929;-81
2022/12/04 13:41:27;;;;;;;;;;;;;;;;;;5029664;28;19929;-85
2022/12/04 13:44:00;;;;;;;;;;;;;;;;;;5031619;28;19936;-83
2022/12/04 13:46:27;;;;;;;;;;;;;;;;;;5030681;28;19927;-82
2022/12/04 13:48:55;;;;;;;;;;;;;;;;;;5030069;28;19921;-83
2022/12/04 13:51:27;;;;;;;;;;;;;;;;;;5029957;28;19929;-81
2022/12/04 13:53:55;;;;;;;;;;;;;;;;;;5029301;28;19935;-82
2022/12/04 13:56:27;;;;;;;;;;;;;;;;;;5035949;28;19925;-80
2022/12/04 13:58:55;;;;;;;;;;;;;;;;;;5034468;28;20454;-82
2022/12/04 14:01:22;;;;;;;;;;;;;;;;;;5048407;28;19931;-84
2022/12/04 14:03:56;;;;;;;;;;;;;;;;;;5032310;28;19929;-82
2022/12/04 14:06:23;;;;;;;;;;;;;;;;;;5030342;28;21479;-81
2022/12/04 14:08:56;;;;;;;;;;;;;;;;;;5051162;28;19929;-81
2022/12/04 14:11:23;;;;;;;;;;;;;;;;;;5031637;28;19929;-84
2022/12/04 14:13:56;;;;;;;;;;;;;;;;;;5036274;28;19929;-83
2022/12/04 14:16:23;;;;;;;;;;;;;;;;;;5036662;28;19925;-84
2022/12/04 14:18:54;;;;;;;;;;;;;;;;;;5039525;28;19924;-81
2022/12/04 14:21:21;;;;;;;;;;;;;;;;;;5029343;28;19928;-83
2022/12/04 14:23:54;;;;;;;;;;;;;;;;;;5029861;28;19936;-81
2022/12/04 14:26:21;;;;;;;;;;;;;;;;;;5027624;28;19921;-82
2022/12/04 14:28:54;;;;;;;;;;;;;;;;;;5030385;28;19929;-81
2022/12/04 14:31:21;;;;;;;;;;;;;;;;;;5045319;28;19929;-80
2022/12/04 14:33:54;;;;;;;;;;;;;;;;;;5032626;28;19928;-81
2022/12/04 14:36:26;;;;;;;;;;;;;;;;;;5031657;28;19932;-82
2022/12/04 14:38:54;;;;;;;;;;;;;;;;;;5030680;28;19928;-81
2022/12/04 14:41:21;;;;;;;;;;;;;;;;;;5049471;28;20265;-80
2022/12/04 14:43:54;;;;;;;;;;;;;;;;;;5029319;28;19935;-82
2022/12/04 14:46:21;;;;;;;;;;;;;;;;;;5031106;28;19929;-83
2022/12/04 14:48:49;;;;;;;;;;;;;;;;;;5035388;28;19936;-82
2022/12/04 14:51:21;;;;;;;;;;;;;;;;;;5029287;28;19928;-81
2022/12/04 14:53:49;;;;;;;;;;;;;;;;;;5034312;28;19934;-81
2022/12/04 14:56:17;;;;;;;;;;;;;;;;;;5035679;28;19929;-83
2022/12/04 14:58:44;;;;;;;;;;;;;;;;;;5030102;28;19924;-82
2022/12/04 15:01:12;;;;;;;;;;;;;;;;;;5032215;28;19936;-81
2022/12/04 15:03:44;;;;;;;;;;;;;;;;;;5030068;28;19951;-81
2022/12/04 15:06:17;;;;;;;;;;;;;;;;;;5028644;28;19929;-81
2022/12/04 15:08:44;;;;;;;;;;;;;;;;;;5030256;28;19928;-84
2022/12/04 15:14:02;;;;;;;;;;;;;;;;;;5030028;28;19929;-82
2022/12/04 15:16:29;;;;;;;;;;;;;;;;;;5034667;28;21777;-83
2022/12/04 15:18:57;;;;;;;;;;;;;;;;;;5031926;28;19928;-85
2022/12/04 15:21:24;;;;;;;;;;;;;;;;;;5030111;28;19936;-82
2022/12/04 15:23:52;;;;;;;;;;;;;;;;;;5035642;28;20305;-81
2022/12/04 15:26:20;;;;;;;;;;;;;;;;;;5032203;28;19928;-84
2022/12/04 15:28:48;;;;;;;;;;;;;;;;;;5038038;28;19935;-81
2022/12/04 15:31:15;;;;;;;;;;;;;;;;;;5032817;28;19936;-83
2022/12/04 15:33:43;;;;;;;;;;;;;;;;;;5039867;28;19935;-83
2022/12/04 15:36:10;;;;;;;;;;;;;;;;;;5026352;28;19928;-83
2022/12/04 15:38:43;;;;;;;;;;;;;;;;;;5024830;28;19935;-83
2022/12/04 15:41:17;;;;;;;;;;;;;;;;;;5022978;28;21268;-82
2022/12/04 15:43:45;;;;;;;;;;;;;;;;;;5028240;28;19933;-82
2022/12/04 15:46:12;;;;;;;;;;;;;;;;;;5027522;28;19940;-80
2022/12/04 15:48:40;;;;;;;;;;;;;;;;;;5027691;28;20585;-81
2022/12/04 15:51:07;;;;;;;;;;;;;;;;;;5020412;28;20502;-82
2022/12/04 15:53:36;;;;;;;;;;;;;;;;;;5027175;28;19933;-82
2022/12/04 15:56:03;;;;;;;;;;;;;;;;;;5028818;28;19941;-81
2022/12/04 15:58:36;;;;;;;;;;;;;;;;;;5027391;28;19928;-81
2022/12/04 16:01:04;;;;;;;;;;;;;;;;;;5028324;28;19933;-82
2022/12/04 16:03:36;;;;;;;;;;;;;;;;;;5026208;28;19948;-80
2022/12/04 16:06:04;;;;;;;;;;;;;;;;;;5023371;28;20907;-80
2022/12/04 16:08:31;;;;;;;;;;;;;;;;;;5025816;28;19925;-82
2022/12/04 16:10:59;;;;;;;;;;;;;;;;;;5028489;28;19933;-83
2022/12/04 16:13:26;;;;;;;;;;;;;;;;;;5024272;28;19933;-81
2022/12/04 16:15:54;;;;;;;;;;;;;;;;;;5023173;28;19944;-81
2022/12/04 16:18:26;;;;;;;;;;;;;;;;;;5030491;28;19933;-83
2022/12/04 16:20:59;;;;;;;;;;;;;;;;;;5024549;28;19932;-83
2022/12/04 16:23:27;;;;;;;;;;;;;;;;;;5023617;28;19933;-81
2022/12/04 16:25:54;;;;;;;;;;;;;;;;;;5026996;28;19933;-83
2022/12/04 16:28:21;;;;;;;;;;;;;;;;;;5025793;28;19929;-85
2022/12/04 16:30:49;;;;;;;;;;;;;;;;;;5037941;28;19933;-84
2022/12/04 16:33:17;;;;;;;;;;;;;;;;;;5032564;28;19933;-83
2022/12/04 16:35:49;;;;;;;;;;;;;;;;;;5040186;28;19933;-82
2022/12/04 16:38:22;;;;;;;;;;;;;;;;;;5025073;28;19955;-82
2022/12/04 16:40:49;;;;;;;;;;;;;;;;;;5028003;28;19944;-84
2022/12/04 16:43:17;;;;;;;;;;;;;;;;;;5026670;28;19932;-83
2022/12/04 16:45:45;;;;;;;;;;;;;;;;;;5024052;28;19933;-84
2022/12/04 16:48:13;;;;;;;;;;;;;;;;;;5023491;28;20493;-82
2022/12/04 16:50:47;;;;;;;13.70;5.55;;;;;;;;;;5022645;28;19936;-80
2022/12/04 16:53:15;;;;;;;11.27;4.40;;;;;;;;;;5020579;28;20068;-83
2022/12/04 16:55:48;;;;;;;;;;;;;;;;;;5028401;28;20502;-82
2022/12/04 16:58:20;;;;;;;;;;;;;;;;;;5026274;28;19930;-83
2022/12/04 17:00:53;;;;;;;;;;;;;;;;;;5025692;28;19928;-81
2022/12/04 17:03:27;;;;;;;13.23;5.18;;;;;;;;;;5025315;28;19929;-81
2022/12/04 17:05:56;;;;;;;8.55;4.25;;;;;;;;;;5022504;28;20053;-84
2022/12/04 17:08:24;;;;;;;12.73;5.65;;;;;;;;;;5023051;28;20060;-83